Detall de PIREP

Printer-friendly versionPDF version

[2016/11/07 17:01:00]
Flight IATA:CT0003
Pilot Number:012
Company ICAO:CAT
Aircraft Type:C750/F
PAX:4
Departing Airport: LICJ
Destination Airport: LIRN
Alternate Airport:LIRF
Online: VATSIM
Route:ROSAS M742 SOR
Flight Level:F180
No Slew and time accel
No pause
Crash detect
Detect pilot in Cockpit between each 30 and 45 minutes
17:01 Zero fuel Weight: 22919 Lbs, Fuel Weight: 4387 Lbs
17:01 VATSIM:LICJ 071650Z 19014KT 150V220 9999 FEW030 SCT065 24/13 Q1003 WS RWY25
17:01 VATSIM:LIRN 071650Z VRB02KT 8000 RA SCT030 OVC070 14/12 Q1008 NOSIG
17:01 Parking Brakes off
17:05 Take-off
17:05 Take off Weight: 27243 Lbs
17:05 Wind: 179º @ 014 Knots Heading: 201º
17:05 POS N38º 10´ 23´´ E013º 05´ 23´´
17:05 Gear Up: 155 Knots
17:05 Flaps:3 at 156 Knots
17:05 Flaps:2 at 185 Knots
17:05 Flaps:0 at 201 Knots
17:12 TOC
17:12 Fuel Weight: 4012 Lb
17:20 Wind:225º@058 Knots Heading: 015º Ground Speed: 458 Knots Altitude 17811 ft
17:26 TOD
17:26 Fuel Weight: 3672 Lb
17:34 Flaps:2 at 205 Knots
17:35 Wind:088º@009 Knots Heading: 288º Ground Speed: 229 Knots Altitude 4895 ft
17:36 Flaps:3 at 193 Knots
17:37 Gear Down: 175 Knots
17:38 Flaps:4 at 175 Knots
17:39 Flaps:5 at 165 Knots
17:42 TouchDown:Rate -595 ft/min Speed: 128 Knots
17:42 VATSIM:LIRN 071720Z VRB02KT 8000 RA SCT030 OVC070 13/11 Q1008 NOSIG
17:42 Land
17:42 Wind:356º@002 Knots
17:42 Heading: 068º
17:42 Flight Duration: 00:37
17:42 Landing Weight: 26419 Lbs
17:42 POS N40º 53´ 18´´ E014º 17´ 44´´
17:45 Parking brakes on
17:45 Block to Block Duration: 00:45
17:45 Final Fuel: 3470 Lbls
17:45 Spent Fuel: 917 Lbls
17:45 Flight Length: 207 NM
17:45 TOD Land Length: 65 NM

Exportar CSV

Powered by Drupal - Modified by Danger4k